sensor_id;sensor_type;location;lat;lon;timestamp;temperature;humidity
71082;SHT31;58740;50.672;18.690;2023-04-03T00:01:18;2.58;80.70
71082;SHT31;58740;50.672;18.690;2023-04-03T00:03:46;2.58;80.73
71082;SHT31;58740;50.672;18.690;2023-04-03T00:06:14;2.58;80.65
71082;SHT31;58740;50.672;18.690;2023-04-03T00:08:42;2.59;80.57
71082;SHT31;58740;50.672;18.690;2023-04-03T00:11:10;2.60;80.43
71082;SHT31;58740;50.672;18.690;2023-04-03T00:13:38;2.60;80.37
71082;SHT31;58740;50.672;18.690;2023-04-03T00:16:07;2.56;80.21
71082;SHT31;58740;50.672;18.690;2023-04-03T00:18:37;2.53;80.24
71082;SHT31;58740;50.672;18.690;2023-04-03T00:21:07;2.51;80.23
71082;SHT31;58740;50.672;18.690;2023-04-03T00:23:39;2.52;80.35
71082;SHT31;58740;50.672;18.690;2023-04-03T00:26:07;2.52;80.26
71082;SHT31;58740;50.672;18.690;2023-04-03T00:28:34;2.49;80.16
71082;SHT31;58740;50.672;18.690;2023-04-03T00:31:02;2.45;80.18
71082;SHT31;58740;50.672;18.690;2023-04-03T00:33:31;2.44;80.09
71082;SHT31;58740;50.672;18.690;2023-04-03T00:35:58;2.43;80.02
71082;SHT31;58740;50.672;18.690;2023-04-03T00:38:27;2.44;79.79
71082;SHT31;58740;50.672;18.690;2023-04-03T00:40:54;2.39;79.40
71082;SHT31;58740;50.672;18.690;2023-04-03T00:43:23;2.38;79.59
71082;SHT31;58740;50.672;18.690;2023-04-03T00:45:54;2.37;79.59
71082;SHT31;58740;50.672;18.690;2023-04-03T00:48:29;2.34;79.26
71082;SHT31;58740;50.672;18.690;2023-04-03T00:51:02;2.30;79.19
71082;SHT31;58740;50.672;18.690;2023-04-03T00:53:35;2.29;79.23
71082;SHT31;58740;50.672;18.690;2023-04-03T00:56:09;2.29;79.20
71082;SHT31;58740;50.672;18.690;2023-04-03T00:58:45;2.30;79.13
71082;SHT31;58740;50.672;18.690;2023-04-03T01:01:49;2.29;78.83
71082;SHT31;58740;50.672;18.690;2023-04-03T01:04:31;2.25;78.52
71082;SHT31;58740;50.672;18.690;2023-04-03T01:07:07;2.21;78.58
71082;SHT31;58740;50.672;18.690;2023-04-03T01:09:58;2.20;78.54
71082;SHT31;58740;50.672;18.690;2023-04-03T01:12:32;2.20;78.41
71082;SHT31;58740;50.672;18.690;2023-04-03T01:15:06;2.17;78.29
71082;SHT31;58740;50.672;18.690;2023-04-03T01:23:25;2.12;78.13
71082;SHT31;58740;50.672;18.690;2023-04-03T01:25:58;2.07;77.99
71082;SHT31;58740;50.672;18.690;2023-04-03T01:28:27;2.04;77.99
71082;SHT31;58740;50.672;18.690;2023-04-03T01:34:08;1.93;77.69
71082;SHT31;58740;50.672;18.690;2023-04-03T01:36:36;1.88;77.60
71082;SHT31;58740;50.672;18.690;2023-04-03T01:39:04;1.83;77.63
71082;SHT31;58740;50.672;18.690;2023-04-03T01:41:31;1.78;77.40
71082;SHT31;58740;50.672;18.690;2023-04-03T01:43:59;1.74;77.38
71082;SHT31;58740;50.672;18.690;2023-04-03T01:46:27;1.71;77.57
71082;SHT31;58740;50.672;18.690;2023-04-03T01:48:55;1.70;77.57
71082;SHT31;58740;50.672;18.690;2023-04-03T01:51:22;1.68;77.16
71082;SHT31;58740;50.672;18.690;2023-04-03T01:53:50;1.63;77.11
71082;SHT31;58740;50.672;18.690;2023-04-03T01:56:18;1.60;77.21
71082;SHT31;58740;50.672;18.690;2023-04-03T01:58:47;1.58;77.05
71082;SHT31;58740;50.672;18.690;2023-04-03T02:01:15;1.56;77.02
71082;SHT31;58740;50.672;18.690;2023-04-03T02:03:43;1.55;77.01
71082;SHT31;58740;50.672;18.690;2023-04-03T02:06:11;1.52;76.81
71082;SHT31;58740;50.672;18.690;2023-04-03T02:08:39;1.49;76.77
71082;SHT31;58740;50.672;18.690;2023-04-03T02:11:07;1.45;76.81
71082;SHT31;58740;50.672;18.690;2023-04-03T02:13:35;1.44;76.77
71082;SHT31;58740;50.672;18.690;2023-04-03T02:16:06;1.43;76.87
71082;SHT31;58740;50.672;18.690;2023-04-03T02:18:39;1.40;76.70
71082;SHT31;58740;50.672;18.690;2023-04-03T02:21:07;1.37;76.65
71082;SHT31;58740;50.672;18.690;2023-04-03T02:23:35;1.36;76.69
71082;SHT31;58740;50.672;18.690;2023-04-03T02:26:08;1.33;76.67
71082;SHT31;58740;50.672;18.690;2023-04-03T02:28:39;1.33;76.78
71082;SHT31;58740;50.672;18.690;2023-04-03T02:31:09;1.31;76.60
71082;SHT31;58740;50.672;18.690;2023-04-03T02:33:38;1.29;76.59
71082;SHT31;58740;50.672;18.690;2023-04-03T02:36:06;1.27;76.65
71082;SHT31;58740;50.672;18.690;2023-04-03T02:38:35;1.24;76.60
71082;SHT31;58740;50.672;18.690;2023-04-03T02:41:04;1.21;76.63
71082;SHT31;58740;50.672;18.690;2023-04-03T02:43:38;1.19;76.50
71082;SHT31;58740;50.672;18.690;2023-04-03T02:46:06;1.19;76.57
71082;SHT31;58740;50.672;18.690;2023-04-03T02:48:34;1.20;76.37
71082;SHT31;58740;50.672;18.690;2023-04-03T02:51:03;1.17;76.29
71082;SHT31;58740;50.672;18.690;2023-04-03T02:53:31;1.11;76.14
71082;SHT31;58740;50.672;18.690;2023-04-03T02:55:59;1.06;76.34
71082;SHT31;58740;50.672;18.690;2023-04-03T02:58:27;1.04;76.53
71082;SHT31;58740;50.672;18.690;2023-04-03T03:00:54;1.03;76.43
71082;SHT31;58740;50.672;18.690;2023-04-03T03:03:22;1.02;76.41
71082;SHT31;58740;50.672;18.690;2023-04-03T03:05:50;1.02;76.37
71082;SHT31;58740;50.672;18.690;2023-04-03T03:08:32;0.98;76.31
71082;SHT31;58740;50.672;18.690;2023-04-03T03:11:01;0.95;76.37
71082;SHT31;58740;50.672;18.690;2023-04-03T03:13:30;0.92;76.43
71082;SHT31;58740;50.672;18.690;2023-04-03T03:15:59;0.91;76.48
71082;SHT31;58740;50.672;18.690;2023-04-03T03:18:27;0.92;76.38
71082;SHT31;58740;50.672;18.690;2023-04-03T03:20:57;0.89;76.26
71082;SHT31;58740;50.672;18.690;2023-04-03T03:23:27;0.88;76.38
71082;SHT31;58740;50.672;18.690;2023-04-03T03:25:59;0.86;76.37
71082;SHT31;58740;50.672;18.690;2023-04-03T03:28:31;0.85;76.33
71082;SHT31;58740;50.672;18.690;2023-04-03T03:30:59;0.81;76.28
71082;SHT31;58740;50.672;18.690;2023-04-03T03:33:28;0.79;76.30
71082;SHT31;58740;50.672;18.690;2023-04-03T03:35:56;0.75;76.10
71082;SHT31;58740;50.672;18.690;2023-04-03T03:38:24;0.71;76.11
71082;SHT31;58740;50.672;18.690;2023-04-03T03:40:52;0.67;76.12
71082;SHT31;58740;50.672;18.690;2023-04-03T03:43:20;0.66;76.20
71082;SHT31;58740;50.672;18.690;2023-04-03T03:45:51;0.68;76.28
71082;SHT31;58740;50.672;18.690;2023-04-03T03:48:21;0.66;76.12
71082;SHT31;58740;50.672;18.690;2023-04-03T03:50:49;0.62;76.06
71082;SHT31;58740;50.672;18.690;2023-04-03T03:53:17;0.58;76.12
71082;SHT31;58740;50.672;18.690;2023-04-03T03:55:46;0.56;76.19
71082;SHT31;58740;50.672;18.690;2023-04-03T03:58:14;0.55;76.19
71082;SHT31;58740;50.672;18.690;2023-04-03T04:00:42;0.52;76.07
71082;SHT31;58740;50.672;18.690;2023-04-03T04:03:09;0.48;76.04
71082;SHT31;58740;50.672;18.690;2023-04-03T04:05:37;0.45;76.17
71082;SHT31;58740;50.672;18.690;2023-04-03T04:08:05;0.44;76.21
71082;SHT31;58740;50.672;18.690;2023-04-03T04:10:34;0.43;76.27
71082;SHT31;58740;50.672;18.690;2023-04-03T04:13:04;0.41;76.09
71082;SHT31;58740;50.672;18.690;2023-04-03T04:15:32;0.40;76.12
71082;SHT31;58740;50.672;18.690;2023-04-03T04:17:59;0.39;76.13
71082;SHT31;58740;50.672;18.690;2023-04-03T04:20:27;0.37;76.12
71082;SHT31;58740;50.672;18.690;2023-04-03T04:22:54;0.36;76.09
71082;SHT31;58740;50.672;18.690;2023-04-03T04:25:22;0.37;76.10
71082;SHT31;58740;50.672;18.690;2023-04-03T04:27:50;0.37;76.05
71082;SHT31;58740;50.672;18.690;2023-04-03T04:30:17;0.41;76.10
71082;SHT31;58740;50.672;18.690;2023-04-03T04:32:45;0.43;75.91
71082;SHT31;58740;50.672;18.690;2023-04-03T04:35:14;0.40;75.79
71082;SHT31;58740;50.672;18.690;2023-04-03T04:37:43;0.39;75.88
71082;SHT31;58740;50.672;18.690;2023-04-03T04:40:11;0.36;75.86
71082;SHT31;58740;50.672;18.690;2023-04-03T04:42:38;0.37;75.84
71082;SHT31;58740;50.672;18.690;2023-04-03T04:45:06;0.36;75.81
71082;SHT31;58740;50.672;18.690;2023-04-03T04:47:34;0.36;75.82
71082;SHT31;58740;50.672;18.690;2023-04-03T04:50:02;0.36;75.73
71082;SHT31;58740;50.672;18.690;2023-04-03T04:52:31;0.35;75.74
71082;SHT31;58740;50.672;18.690;2023-04-03T04:54:58;0.34;75.77
71082;SHT31;58740;50.672;18.690;2023-04-03T04:57:27;0.34;75.71
71082;SHT31;58740;50.672;18.690;2023-04-03T04:59:54;0.35;75.70
71082;SHT31;58740;50.672;18.690;2023-04-03T05:02:22;0.37;75.61
71082;SHT31;58740;50.672;18.690;2023-04-03T05:04:50;0.36;75.49
71082;SHT31;58740;50.672;18.690;2023-04-03T05:07:19;0.34;75.47
71082;SHT31;58740;50.672;18.690;2023-04-03T05:09:47;0.31;75.39
71082;SHT31;58740;50.672;18.690;2023-04-03T05:12:15;0.32;75.51
71082;SHT31;58740;50.672;18.690;2023-04-03T05:14:44;0.33;75.59
71082;SHT31;58740;50.672;18.690;2023-04-03T05:17:11;0.36;75.49
71082;SHT31;58740;50.672;18.690;2023-04-03T05:19:39;0.37;75.44
71082;SHT31;58740;50.672;18.690;2023-04-03T05:22:07;0.40;75.44
71082;SHT31;58740;50.672;18.690;2023-04-03T05:24:34;0.40;75.18
71082;SHT31;58740;50.672;18.690;2023-04-03T05:27:02;0.41;75.33
71082;SHT31;58740;50.672;18.690;2023-04-03T05:29:30;0.44;75.30
71082;SHT31;58740;50.672;18.690;2023-04-03T05:31:58;0.47;75.31
71082;SHT31;58740;50.672;18.690;2023-04-03T05:34:26;0.48;75.04
71082;SHT31;58740;50.672;18.690;2023-04-03T05:36:53;0.50;75.10
71082;SHT31;58740;50.672;18.690;2023-04-03T05:39:21;0.52;75.00
71082;SHT31;58740;50.672;18.690;2023-04-03T05:41:50;0.54;74.94
71082;SHT31;58740;50.672;18.690;2023-04-03T05:44:17;0.55;74.58
71082;SHT31;58740;50.672;18.690;2023-04-03T05:46:45;0.58;74.75
71082;SHT31;58740;50.672;18.690;2023-04-03T05:49:13;0.66;74.69
71082;SHT31;58740;50.672;18.690;2023-04-03T05:51:41;0.75;74.33
71082;SHT31;58740;50.672;18.690;2023-04-03T05:56:55;0.92;74.13
71082;SHT31;58740;50.672;18.690;2023-04-03T05:59:23;0.97;73.86
71082;SHT31;58740;50.672;18.690;2023-04-03T06:01:50;0.95;73.71
71082;SHT31;58740;50.672;18.690;2023-04-03T06:04:18;0.96;73.89
71082;SHT31;58740;50.672;18.690;2023-04-03T06:09:24;1.10;73.53
71082;SHT31;58740;50.672;18.690;2023-04-03T06:11:56;1.18;73.14
71082;SHT31;58740;50.672;18.690;2023-04-03T06:14:26;1.25;72.73
71082;SHT31;58740;50.672;18.690;2023-04-03T06:16:54;1.27;72.75
71082;SHT31;58740;50.672;18.690;2023-04-03T06:19:22;1.30;72.47
71082;SHT31;58740;50.672;18.690;2023-04-03T06:21:50;1.29;72.38
71082;SHT31;58740;50.672;18.690;2023-04-03T06:24:18;1.27;72.57
71082;SHT31;58740;50.672;18.690;2023-04-03T06:26:48;1.22;72.34
71082;SHT31;58740;50.672;18.690;2023-04-03T06:29:19;1.16;72.35
71082;SHT31;58740;50.672;18.690;2023-04-03T06:31:48;1.09;72.28
71082;SHT31;58740;50.672;18.690;2023-04-03T06:34:17;1.05;72.35
71082;SHT31;58740;50.672;18.690;2023-04-03T06:36:45;1.04;72.39
71082;SHT31;58740;50.672;18.690;2023-04-03T06:39:14;1.01;72.46
71082;SHT31;58740;50.672;18.690;2023-04-03T06:41:45;1.06;72.55
71082;SHT31;58740;50.672;18.690;2023-04-03T06:44:13;1.17;72.45
71082;SHT31;58740;50.672;18.690;2023-04-03T06:46:43;1.29;72.70
71082;SHT31;58740;50.672;18.690;2023-04-03T06:49:13;1.41;72.45
71082;SHT31;58740;50.672;18.690;2023-04-03T06:51:42;1.52;72.31
71082;SHT31;58740;50.672;18.690;2023-04-03T06:54:09;1.63;71.89
71082;SHT31;58740;50.672;18.690;2023-04-03T06:56:37;1.72;71.63
71082;SHT31;58740;50.672;18.690;2023-04-03T06:59:05;1.82;71.82
71082;SHT31;58740;50.672;18.690;2023-04-03T07:01:32;1.89;71.62
71082;SHT31;58740;50.672;18.690;2023-04-03T07:04:00;1.98;71.75
71082;SHT31;58740;50.672;18.690;2023-04-03T07:06:29;2.07;71.29
71082;SHT31;58740;50.672;18.690;2023-04-03T07:08:58;2.15;70.88
71082;SHT31;58740;50.672;18.690;2023-04-03T07:11:28;2.20;69.74
71082;SHT31;58740;50.672;18.690;2023-04-03T07:13:55;2.29;70.13
71082;SHT31;58740;50.672;18.690;2023-04-03T07:16:24;2.37;68.94
71082;SHT31;58740;50.672;18.690;2023-04-03T07:18:52;2.46;69.11
71082;SHT31;58740;50.672;18.690;2023-04-03T07:21:19;2.51;68.56
71082;SHT31;58740;50.672;18.690;2023-04-03T07:23:47;2.57;67.63
71082;SHT31;58740;50.672;18.690;2023-04-03T07:26:21;2.62;67.11
71082;SHT31;58740;50.672;18.690;2023-04-03T07:28:49;2.72;67.27
71082;SHT31;58740;50.672;18.690;2023-04-03T07:31:17;2.82;66.77
71082;SHT31;58740;50.672;18.690;2023-04-03T07:33:46;2.82;65.06
71082;SHT31;58740;50.672;18.690;2023-04-03T07:36:15;2.84;64.70
71082;SHT31;58740;50.672;18.690;2023-04-03T07:38:48;2.89;64.83
71082;SHT31;58740;50.672;18.690;2023-04-03T07:41:18;2.94;65.19
71082;SHT31;58740;50.672;18.690;2023-04-03T07:43:48;2.98;65.24
71082;SHT31;58740;50.672;18.690;2023-04-03T07:46:17;3.01;64.80
71082;SHT31;58740;50.672;18.690;2023-04-03T07:48:44;3.04;63.66
71082;SHT31;58740;50.672;18.690;2023-04-03T07:51:12;3.02;62.22
71082;SHT31;58740;50.672;18.690;2023-04-03T07:53:40;3.02;62.92
71082;SHT31;58740;50.672;18.690;2023-04-03T07:56:08;3.02;62.46
71082;SHT31;58740;50.672;18.690;2023-04-03T07:58:36;3.08;63.23
71082;SHT31;58740;50.672;18.690;2023-04-03T08:01:04;3.11;61.36
71082;SHT31;58740;50.672;18.690;2023-04-03T08:03:33;3.11;59.40
71082;SHT31;58740;50.672;18.690;2023-04-03T08:06:02;3.11;58.74
71082;SHT31;58740;50.672;18.690;2023-04-03T08:08:41;3.11;58.55
71082;SHT31;58740;50.672;18.690;2023-04-03T08:11:10;3.15;60.03
71082;SHT31;58740;50.672;18.690;2023-04-03T08:13:39;3.24;60.47
71082;SHT31;58740;50.672;18.690;2023-04-03T08:16:10;3.31;59.17
71082;SHT31;58740;50.672;18.690;2023-04-03T08:18:41;3.35;59.31
71082;SHT31;58740;50.672;18.690;2023-04-03T08:21:09;3.32;58.34
71082;SHT31;58740;50.672;18.690;2023-04-03T08:23:39;3.34;59.16
71082;SHT31;58740;50.672;18.690;2023-04-03T08:26:12;3.38;59.51
71082;SHT31;58740;50.672;18.690;2023-04-03T08:28:43;3.36;57.77
71082;SHT31;58740;50.672;18.690;2023-04-03T08:31:13;3.29;55.82
71082;SHT31;58740;50.672;18.690;2023-04-03T08:33:44;3.19;54.08
71082;SHT31;58740;50.672;18.690;2023-04-03T08:36:16;3.15;53.91
71082;SHT31;58740;50.672;18.690;2023-04-03T08:38:54;3.16;53.71
71082;SHT31;58740;50.672;18.690;2023-04-03T08:41:29;3.15;53.40
71082;SHT31;58740;50.672;18.690;2023-04-03T08:44:23;3.21;54.08
71082;SHT31;58740;50.672;18.690;2023-04-03T08:47:20;3.32;53.86
71082;SHT31;58740;50.672;18.690;2023-04-03T08:50:07;3.39;53.31
71082;SHT31;58740;50.672;18.690;2023-04-03T08:52:44;3.43;53.61
71082;SHT31;58740;50.672;18.690;2023-04-03T08:55:27;3.47;54.06
71082;SHT31;58740;50.672;18.690;2023-04-03T08:58:03;3.48;53.09
71082;SHT31;58740;50.672;18.690;2023-04-03T09:00:38;3.42;52.34
71082;SHT31;58740;50.672;18.690;2023-04-03T09:03:16;3.35;52.23
71082;SHT31;58740;50.672;18.690;2023-04-03T09:05:55;3.31;51.94
71082;SHT31;58740;50.672;18.690;2023-04-03T09:08:46;3.22;52.25
71082;SHT31;58740;50.672;18.690;2023-04-03T09:14:42;3.23;52.62
71082;SHT31;58740;50.672;18.690;2023-04-03T09:23:31;3.18;52.91
71082;SHT31;58740;50.672;18.690;2023-04-03T09:26:20;3.06;51.70
71082;SHT31;58740;50.672;18.690;2023-04-03T09:28:59;2.97;52.56
71082;SHT31;58740;50.672;18.690;2023-04-03T09:31:40;2.90;52.78
71082;SHT31;58740;50.672;18.690;2023-04-03T09:36:54;2.86;52.23
71082;SHT31;58740;50.672;18.690;2023-04-03T09:39:48;2.83;52.56
71082;SHT31;58740;50.672;18.690;2023-04-03T09:42:24;2.90;52.36
71082;SHT31;58740;50.672;18.690;2023-04-03T09:44:54;3.04;52.94
71082;SHT31;58740;50.672;18.690;2023-04-03T09:47:27;3.17;52.51
71082;SHT31;58740;50.672;18.690;2023-04-03T09:52:41;3.26;52.43
71082;SHT31;58740;50.672;18.690;2023-04-03T09:57:57;3.36;51.83
71082;SHT31;58740;50.672;18.690;2023-04-03T10:00:56;3.47;51.13
71082;SHT31;58740;50.672;18.690;2023-04-03T10:03:33;3.58;51.81
71082;SHT31;58740;50.672;18.690;2023-04-03T10:06:03;3.71;52.80
71082;SHT31;58740;50.672;18.690;2023-04-03T10:08:58;3.73;51.79
71082;SHT31;58740;50.672;18.690;2023-04-03T10:12:17;3.63;51.30
71082;SHT31;58740;50.672;18.690;2023-04-03T10:14:54;3.52;51.20
71082;SHT31;58740;50.672;18.690;2023-04-03T10:17:37;3.47;52.17
71082;SHT31;58740;50.672;18.690;2023-04-03T10:34:51;3.63;51.64
71082;SHT31;58740;50.672;18.690;2023-04-03T10:47:51;3.81;50.43
71082;SHT31;58740;50.672;18.690;2023-04-03T10:51:11;3.88;48.86
71082;SHT31;58740;50.672;18.690;2023-04-03T10:56:35;4.01;49.23
71082;SHT31;58740;50.672;18.690;2023-04-03T10:59:44;4.04;48.11
71082;SHT31;58740;50.672;18.690;2023-04-03T11:08:59;4.13;49.05
71082;SHT31;58740;50.672;18.690;2023-04-03T11:11:16;4.12;48.55
71082;SHT31;58740;50.672;18.690;2023-04-03T11:14:51;4.14;48.66
71082;SHT31;58740;50.672;18.690;2023-04-03T11:17:13;4.13;48.84
71082;SHT31;58740;50.672;18.690;2023-04-03T11:19:52;4.18;48.47
71082;SHT31;58740;50.672;18.690;2023-04-03T11:22:29;4.13;47.90
71082;SHT31;58740;50.672;18.690;2023-04-03T11:27:56;4.12;49.43
71082;SHT31;58740;50.672;18.690;2023-04-03T11:30:33;4.25;49.96
71082;SHT31;58740;50.672;18.690;2023-04-03T11:36:26;4.35;49.56
71082;SHT31;58740;50.672;18.690;2023-04-03T11:39:26;4.33;47.93
71082;SHT31;58740;50.672;18.690;2023-04-03T11:42:16;4.26;46.96
71082;SHT31;58740;50.672;18.690;2023-04-03T11:55:42;4.32;47.76
71082;SHT31;58740;50.672;18.690;2023-04-03T12:04:14;4.39;47.70
71082;SHT31;58740;50.672;18.690;2023-04-03T12:11:55;4.40;47.72
71082;SHT31;58740;50.672;18.690;2023-04-03T12:14:26;4.49;48.07
71082;SHT31;58740;50.672;18.690;2023-04-03T12:16:55;4.55;48.45
71082;SHT31;58740;50.672;18.690;2023-04-03T12:19:38;4.57;48.03
71082;SHT31;58740;50.672;18.690;2023-04-03T12:22:13;4.54;47.39
71082;SHT31;58740;50.672;18.690;2023-04-03T12:24:45;4.57;47.54
71082;SHT31;58740;50.672;18.690;2023-04-03T12:27:29;4.62;47.61
71082;SHT31;58740;50.672;18.690;2023-04-03T12:38:57;4.81;45.18
71082;SHT31;58740;50.672;18.690;2023-04-03T12:41:57;4.84;45.49
71082;SHT31;58740;50.672;18.690;2023-04-03T12:45:00;4.89;46.01
71082;SHT31;58740;50.672;18.690;2023-04-03T12:47:42;4.79;44.89
71082;SHT31;58740;50.672;18.690;2023-04-03T12:53:04;4.65;46.01
71082;SHT31;58740;50.672;18.690;2023-04-03T12:55:39;4.66;45.98
71082;SHT31;58740;50.672;18.690;2023-04-03T12:58:15;4.68;45.90
71082;SHT31;58740;50.672;18.690;2023-04-03T13:01:12;4.71;45.73
71082;SHT31;58740;50.672;18.690;2023-04-03T13:03:47;4.71;44.72
71082;SHT31;58740;50.672;18.690;2023-04-03T13:06:39;4.74;45.80
71082;SHT31;58740;50.672;18.690;2023-04-03T13:12:11;4.72;45.41
71082;SHT31;58740;50.672;18.690;2023-04-03T13:14:53;4.65;44.18
71082;SHT31;58740;50.672;18.690;2023-04-03T13:17:24;4.56;43.34
71082;SHT31;58740;50.672;18.690;2023-04-03T13:19:53;4.53;43.74
71082;SHT31;58740;50.672;18.690;2023-04-03T13:22:34;4.56;45.14
71082;SHT31;58740;50.672;18.690;2023-04-03T13:25:13;4.61;46.60
71082;SHT31;58740;50.672;18.690;2023-04-03T13:27:43;4.66;46.31
71082;SHT31;58740;50.672;18.690;2023-04-03T13:30:23;4.67;44.28
71082;SHT31;58740;50.672;18.690;2023-04-03T13:33:01;4.67;44.04
71082;SHT31;58740;50.672;18.690;2023-04-03T13:35:38;4.71;44.88
71082;SHT31;58740;50.672;18.690;2023-04-03T13:40:53;4.69;45.01
71082;SHT31;58740;50.672;18.690;2023-04-03T13:43:25;4.60;45.45
71082;SHT31;58740;50.672;18.690;2023-04-03T13:46:20;4.57;44.10
71082;SHT31;58740;50.672;18.690;2023-04-03T13:48:55;4.58;44.14
71082;SHT31;58740;50.672;18.690;2023-04-03T13:51:25;4.62;45.46
71082;SHT31;58740;50.672;18.690;2023-04-03T13:53:58;4.66;45.84
71082;SHT31;58740;50.672;18.690;2023-04-03T14:02:09;4.57;46.65
71082;SHT31;58740;50.672;18.690;2023-04-03T14:04:50;4.54;46.93
71082;SHT31;58740;50.672;18.690;2023-04-03T14:07:25;4.54;47.00
71082;SHT31;58740;50.672;18.690;2023-04-03T14:09:55;4.54;46.59
71082;SHT31;58740;50.672;18.690;2023-04-03T14:12:27;4.47;46.11
71082;SHT31;58740;50.672;18.690;2023-04-03T14:15:06;4.41;46.07
71082;SHT31;58740;50.672;18.690;2023-04-03T14:17:46;4.34;45.29
71082;SHT31;58740;50.672;18.690;2023-04-03T14:20:19;4.28;44.86
71082;SHT31;58740;50.672;18.690;2023-04-03T14:22:50;4.27;44.79
71082;SHT31;58740;50.672;18.690;2023-04-03T14:25:19;4.31;45.68
71082;SHT31;58740;50.672;18.690;2023-04-03T14:27:51;4.35;46.67
71082;SHT31;58740;50.672;18.690;2023-04-03T14:30:23;4.37;46.77
71082;SHT31;58740;50.672;18.690;2023-04-03T14:32:55;4.36;46.48
71082;SHT31;58740;50.672;18.690;2023-04-03T14:35:24;4.32;46.37
71082;SHT31;58740;50.672;18.690;2023-04-03T14:37:53;4.28;47.12
71082;SHT31;58740;50.672;18.690;2023-04-03T14:40:23;4.27;46.28
71082;SHT31;58740;50.672;18.690;2023-04-03T14:42:53;4.24;46.41
71082;SHT31;58740;50.672;18.690;2023-04-03T14:45:23;4.21;46.18
71082;SHT31;58740;50.672;18.690;2023-04-03T14:47:52;4.20;46.55
71082;SHT31;58740;50.672;18.690;2023-04-03T14:50:23;4.22;46.97
71082;SHT31;58740;50.672;18.690;2023-04-03T14:52:55;4.24;47.55
71082;SHT31;58740;50.672;18.690;2023-04-03T14:55:26;4.28;48.07
71082;SHT31;58740;50.672;18.690;2023-04-03T14:57:54;4.30;47.51
71082;SHT31;58740;50.672;18.690;2023-04-03T15:00:22;4.29;46.32
71082;SHT31;58740;50.672;18.690;2023-04-03T15:02:50;4.26;46.81
71082;SHT31;58740;50.672;18.690;2023-04-03T15:05:18;4.26;47.84
71082;SHT31;58740;50.672;18.690;2023-04-03T15:07:52;4.23;47.50
71082;SHT31;58740;50.672;18.690;2023-04-03T15:10:26;4.20;46.56
71082;SHT31;58740;50.672;18.690;2023-04-03T15:12:57;4.15;46.23
71082;SHT31;58740;50.672;18.690;2023-04-03T15:15:27;4.12;47.03
71082;SHT31;58740;50.672;18.690;2023-04-03T15:17:57;4.11;47.30
71082;SHT31;58740;50.672;18.690;2023-04-03T15:20:26;4.09;47.70
71082;SHT31;58740;50.672;18.690;2023-04-03T15:22:57;4.08;47.71
71082;SHT31;58740;50.672;18.690;2023-04-03T15:25:28;4.05;47.75
71082;SHT31;58740;50.672;18.690;2023-04-03T15:27:57;4.03;47.24
71082;SHT31;58740;50.672;18.690;2023-04-03T15:30:27;3.99;46.96
71082;SHT31;58740;50.672;18.690;2023-04-03T15:32:55;3.97;47.26
71082;SHT31;58740;50.672;18.690;2023-04-03T15:35:23;3.95;47.23
71082;SHT31;58740;50.672;18.690;2023-04-03T15:37:51;3.92;47.54
71082;SHT31;58740;50.672;18.690;2023-04-03T15:40:19;3.90;46.89
71082;SHT31;58740;50.672;18.690;2023-04-03T15:42:46;3.86;46.64
71082;SHT31;58740;50.672;18.690;2023-04-03T15:45:14;3.84;47.34
71082;SHT31;58740;50.672;18.690;2023-04-03T15:47:42;3.82;47.37
71082;SHT31;58740;50.672;18.690;2023-04-03T15:50:10;3.79;47.60
71082;SHT31;58740;50.672;18.690;2023-04-03T15:52:39;3.77;47.54
71082;SHT31;58740;50.672;18.690;2023-04-03T15:55:07;3.76;48.11
71082;SHT31;58740;50.672;18.690;2023-04-03T15:57:35;3.76;48.67
71082;SHT31;58740;50.672;18.690;2023-04-03T16:00:08;3.77;49.04
71082;SHT31;58740;50.672;18.690;2023-04-03T16:02:37;3.77;49.46
71082;SHT31;58740;50.672;18.690;2023-04-03T16:05:05;3.76;49.40
71082;SHT31;58740;50.672;18.690;2023-04-03T16:07:33;3.74;48.91
71082;SHT31;58740;50.672;18.690;2023-04-03T16:10:02;3.71;49.34
71082;SHT31;58740;50.672;18.690;2023-04-03T16:12:30;3.69;49.14
71082;SHT31;58740;50.672;18.690;2023-04-03T16:14:57;3.65;48.98
71082;SHT31;58740;50.672;18.690;2023-04-03T16:17:26;3.62;49.43
71082;SHT31;58740;50.672;18.690;2023-04-03T16:19:55;3.62;49.87
71082;SHT31;58740;50.672;18.690;2023-04-03T16:22:23;3.60;50.04
71082;SHT31;58740;50.672;18.690;2023-04-03T16:24:54;3.60;49.26
71082;SHT31;58740;50.672;18.690;2023-04-03T16:27:22;3.56;49.50
71082;SHT31;58740;50.672;18.690;2023-04-03T16:29:55;3.57;49.76
71082;SHT31;58740;50.672;18.690;2023-04-03T16:32:23;3.54;49.26
71082;SHT31;58740;50.672;18.690;2023-04-03T16:34:53;3.52;48.81
71082;SHT31;58740;50.672;18.690;2023-04-03T16:37:21;3.50;48.66
71082;SHT31;58740;50.672;18.690;2023-04-03T16:39:49;3.48;48.81
71082;SHT31;58740;50.672;18.690;2023-04-03T16:42:17;3.46;48.77
71082;SHT31;58740;50.672;18.690;2023-04-03T16:44:45;3.45;49.07
71082;SHT31;58740;50.672;18.690;2023-04-03T16:47:13;3.43;49.15
71082;SHT31;58740;50.672;18.690;2023-04-03T16:49:42;3.41;48.68
71082;SHT31;58740;50.672;18.690;2023-04-03T16:52:10;3.38;48.19
71082;SHT31;58740;50.672;18.690;2023-04-03T16:54:39;3.36;48.46
71082;SHT31;58740;50.672;18.690;2023-04-03T16:57:06;3.36;48.72
71082;SHT31;58740;50.672;18.690;2023-04-03T16:59:34;3.35;48.81
71082;SHT31;58740;50.672;18.690;2023-04-03T17:02:02;3.34;49.09
71082;SHT31;58740;50.672;18.690;2023-04-03T17:04:30;3.31;48.14
71082;SHT31;58740;50.672;18.690;2023-04-03T17:06:58;3.29;48.44
71082;SHT31;58740;50.672;18.690;2023-04-03T17:09:33;3.26;48.44
71082;SHT31;58740;50.672;18.690;2023-04-03T17:12:01;3.23;48.82
71082;SHT31;58740;50.672;18.690;2023-04-03T17:14:30;3.22;49.46
71082;SHT31;58740;50.672;18.690;2023-04-03T17:16:58;3.21;49.37
71082;SHT31;58740;50.672;18.690;2023-04-03T17:19:26;3.18;49.46
71082;SHT31;58740;50.672;18.690;2023-04-03T17:21:55;3.17;49.79
71082;SHT31;58740;50.672;18.690;2023-04-03T17:24:24;3.16;49.82
71082;SHT31;58740;50.672;18.690;2023-04-03T17:26:53;3.14;50.01
71082;SHT31;58740;50.672;18.690;2023-04-03T17:29:21;3.13;50.54
71082;SHT31;58740;50.672;18.690;2023-04-03T17:31:49;3.12;50.69
71082;SHT31;58740;50.672;18.690;2023-04-03T17:34:17;3.10;50.76
71082;SHT31;58740;50.672;18.690;2023-04-03T17:36:45;3.10;51.27
71082;SHT31;58740;50.672;18.690;2023-04-03T17:39:13;3.08;51.45
71082;SHT31;58740;50.672;18.690;2023-04-03T17:41:42;3.06;51.80
71082;SHT31;58740;50.672;18.690;2023-04-03T17:44:12;3.04;51.87
71082;SHT31;58740;50.672;18.690;2023-04-03T17:46:41;3.04;52.16
71082;SHT31;58740;50.672;18.690;2023-04-03T17:49:09;3.03;52.51
71082;SHT31;58740;50.672;18.690;2023-04-03T17:51:41;3.01;52.28
71082;SHT31;58740;50.672;18.690;2023-04-03T17:54:09;2.98;52.51
71082;SHT31;58740;50.672;18.690;2023-04-03T17:56:37;2.97;52.93